Time;durP1;ratioP1;P1;durP2;ratioP2;P2;SDS_P1;SDS_P2;PMS_P1;PMS_P2;Temp;Humidity;BMP_temperature;BMP_pressure;BME280_temperature;BME280_humidity;BME280_pressure;Samples;Min_cycle;Max_cycle;Signal;HPM_P1;HPM_P2
2022/04/29 00:02:06;;;;;;;11.15;4.30;;;4.70;99.90;;;;;;5094800;28;20412;-49
2022/04/29 00:04:32;;;;;;;10.23;4.25;;;;;;;;;;5094349;28;20811;-47
2022/04/29 00:06:59;;;;;;;10.10;3.42;;;;;;;;;;5093689;28;20512;-45
2022/04/29 00:09:25;;;;;;;10.98;3.53;;;;;;;;;;5093528;28;20043;-47
2022/04/29 00:11:54;;;;;;;7.97;3.22;;;4.90;99.90;;;;;;5093655;28;20408;-47
2022/04/29 00:14:20;;;;;;;17.00;4.82;;;;;;;;;;5092718;28;20054;-45
2022/04/29 00:16:47;;;;;;;12.68;4.07;;;;;;;;;;5091609;28;20040;-46
2022/04/29 00:19:13;;;;;;;9.43;3.80;;;;;;;;;;5093413;28;20131;-49
2022/04/29 00:21:41;;;;;;;7.97;3.55;;;;;;;;;;5092824;28;20139;-46
2022/04/29 00:24:09;;;;;;;15.48;4.53;;;;;;;;;;5092691;28;20547;-47
2022/04/29 00:26:36;;;;;;;9.50;4.38;;;;;;;;;;5092678;28;20047;-48
2022/04/29 00:29:02;;;;;;;11.70;4.32;;;4.70;99.90;;;;;;5093679;28;20048;-48
2022/04/29 00:31:28;;;;;;;11.02;4.35;;;;;;;;;;5093282;28;20039;-48
2022/04/29 00:33:56;;;;;;;11.20;5.05;;;4.60;99.90;;;;;;5092999;28;20039;-46
2022/04/29 00:36:24;;;;;;;17.92;4.82;;;4.80;99.90;;;;;;5093490;28;21301;-49
2022/04/29 00:38:50;;;;;;;14.82;4.18;;;;;;;;;;5092669;28;20047;-47
2022/04/29 00:41:22;;;;;;;9.65;3.60;;;4.40;99.90;;;;;;5093666;28;20508;-46
2022/04/29 00:44:05;;;;;;;9.55;4.40;;;4.40;99.90;;;;;;5094967;28;20481;-45
2022/04/29 00:46:42;;;;;;;13.23;4.55;;;4.40;99.90;;;;;;5095462;28;20042;-44
2022/04/29 00:49:11;;;;;;;8.23;4.07;;;4.30;99.90;;;;;;5095394;28;20035;-47
2022/04/29 00:51:38;;;;;;;8.63;4.13;;;;;;;;;;5095785;28;20123;-43
2022/04/29 00:54:18;;;;;;;10.30;4.25;;;4.40;99.90;;;;;;5097580;28;20510;-48
2022/04/29 00:56:46;;;;;;;10.32;4.10;;;4.30;99.90;;;;;;5097249;28;20456;-48
2022/04/29 00:59:24;;;;;;;12.15;5.07;;;4.30;99.90;;;;;;5097588;28;20044;-47
2022/04/29 01:01:50;;;;;;;10.32;4.10;;;4.30;99.90;;;;;;5096926;28;20570;-46
2022/04/29 01:04:26;;;;;;;8.15;4.45;;;4.50;99.90;;;;;;5096559;28;20100;-45
2022/04/29 01:06:54;;;;;;;7.10;4.03;;;4.10;99.90;;;;;;5098463;28;20109;-45
2022/04/29 01:09:20;;;;;;;10.50;4.82;;;4.00;99.90;;;;;;5095946;28;20152;-44
2022/04/29 01:11:46;;;;;;;10.57;4.60;;;;;;;;;;5096944;28;20127;-46
2022/04/29 01:14:14;;;;;;;12.55;5.22;;;4.00;99.90;;;;;;5095411;28;20035;-48
2022/04/29 01:16:41;;;;;;;11.80;4.78;;;;;;;;;;5096515;28;20403;-49
2022/04/29 01:19:07;;;;;;;11.50;4.47;;;;;;;;;;5097270;28;20403;-45
2022/04/29 01:21:33;;;;;;;7.75;4.30;;;;;;;;;;5097105;28;20043;-45
2022/04/29 01:23:59;;;;;;;8.40;4.55;;;3.90;99.90;;;;;;5094917;28;20035;-46
2022/04/29 01:26:25;;;;;;;14.18;5.25;;;;;;;;;;5095704;28;20062;-48
2022/04/29 01:28:52;;;;;;;12.77;4.75;;;4.00;99.90;;;;;;5095139;28;20067;-49
2022/04/29 01:31:22;;;;;;;13.52;4.63;;;3.90;99.90;;;;;;5095889;28;20074;-49
2022/04/29 01:33:49;;;;;;;11.63;5.80;;;4.00;99.90;;;;;;5094819;28;20043;-46
2022/04/29 01:36:15;;;;;;;12.18;6.70;;;;;;;;;;5096547;28;20044;-49
2022/04/29 01:38:41;;;;;;;10.23;5.10;;;;;;;;;;5094510;28;20040;-47
2022/04/29 01:41:07;;;;;;;11.50;5.50;;;;;;;;;;5094454;28;20054;-47
2022/04/29 01:43:34;;;;;;;12.43;5.38;;;3.90;99.90;;;;;;5094483;28;20097;-48
2022/04/29 01:46:01;;;;;;;16.42;5.97;;;3.90;99.90;;;;;;5093905;28;20036;-48
2022/04/29 01:48:27;;;;;;;17.45;7.13;;;;;;;;;;5095627;28;20020;-44
2022/04/29 01:50:53;;;;;;;12.02;5.72;;;;;;;;;;5094221;28;20035;-43
2022/04/29 01:53:20;;;;;;;10.38;5.93;;;3.70;99.90;;;;;;5095598;28;20046;-49
2022/04/29 01:55:47;;;;;;;9.48;5.32;;;3.70;99.90;;;;;;5092840;28;20226;-46
2022/04/29 01:58:14;;;;;;;9.90;5.05;;;;;;;;;;5094721;28;20135;-46
2022/04/29 02:00:40;;;;;;;11.57;5.68;;;;;;;;;;5094977;28;20057;-47
2022/04/29 02:03:09;;;;;;;13.05;5.93;;;3.70;99.90;;;;;;5093854;28;20046;-44
2022/04/29 02:05:34;;;;;;;9.05;5.35;;;3.80;99.90;;;;;;5095207;28;20904;-45
2022/04/29 02:08:00;;;;;;;12.13;6.00;;;;;;;;;;5097152;28;20118;-45
2022/04/29 02:10:28;;;;;;;11.93;6.03;;;3.70;99.90;;;;;;5096721;28;20142;-45
2022/04/29 02:12:54;;;;;;;10.90;5.40;;;;;;;;;;5095030;28;20036;-45
2022/04/29 02:15:20;;;;;;;10.77;5.63;;;4.00;99.90;;;;;;5094463;28;20123;-45
2022/04/29 02:17:46;;;;;;;9.35;5.50;;;;;;;;;;5094695;28;20043;-46
2022/04/29 02:20:12;;;;;;;15.45;5.60;;;4.00;99.90;;;;;;5095421;28;20036;-47
2022/04/29 02:22:39;;;;;;;8.85;5.25;;;;;;;;;;5093404;28;20568;-46
2022/04/29 02:25:07;;;;;;;8.93;5.50;;;3.80;99.90;;;;;;5095252;28;20044;-45
2022/04/29 02:27:36;;;;;;;10.40;5.18;;;;;;;;;;5095948;28;20036;-48
2022/04/29 02:30:03;;;;;;;13.52;6.28;;;3.80;99.90;;;;;;5093377;28;20050;-47
2022/04/29 02:32:31;;;;;;;9.77;5.43;;;3.80;99.90;;;;;;5093859;28;20039;-45
2022/04/29 02:34:57;;;;;;;12.25;5.63;;;3.80;99.90;;;;;;5093954;28;20507;-45
2022/04/29 02:37:24;;;;;;;13.25;6.03;;;;;;;;;;5094008;28;20050;-46
2022/04/29 02:39:49;;;;;;;14.75;5.90;;;3.60;99.90;;;;;;5093611;28;20195;-47
2022/04/29 02:42:16;;;;;;;12.30;5.45;;;;;;;;;;5094895;28;20048;-47
2022/04/29 02:44:41;;;;;;;9.85;4.68;;;3.70;99.90;;;;;;5094164;28;20075;-49
2022/04/29 02:47:07;;;;;;;13.32;5.47;;;3.70;99.90;;;;;;5094142;28;20135;-47
2022/04/29 02:49:42;;;;;;;8.65;5.40;;;3.60;99.90;;;;;;5094583;28;20701;-45
2022/04/29 02:52:09;;;;;;;12.57;6.15;;;3.60;99.90;;;;;;5093524;28;20080;-47
2022/04/29 02:54:36;;;;;;;12.93;6.88;;;3.60;99.90;;;;;;5092846;28;20047;-45
2022/04/29 02:57:02;;;;;;;13.35;6.47;;;;;;;;;;5094928;28;20050;-44
2022/04/29 02:59:28;;;;;;;11.45;6.18;;;;;;;;;;5094994;28;20097;-46
2022/04/29 03:01:58;;;;;;;14.85;7.45;;;3.50;99.90;;;;;;5092345;28;20077;-44
2022/04/29 03:04:24;;;;;;;9.98;6.97;;;;;;;;;;5094567;28;20035;-46
2022/04/29 03:06:49;;;;;;;17.30;6.70;;;3.50;99.90;;;;;;5093262;28;20123;-47
2022/04/29 03:09:16;;;;;;;11.77;7.22;;;;;;;;;;5093650;28;20035;-43
2022/04/29 03:11:43;;;;;;;12.98;6.45;;;;;;;;;;5094244;28;20123;-45
2022/04/29 03:14:09;;;;;;;11.85;6.55;;;;;;;;;;5093703;28;20522;-45
2022/04/29 03:16:35;;;;;;;10.65;6.22;;;;;;;;;;5094957;28;20045;-44
2022/04/29 03:19:01;;;;;;;14.25;6.38;;;;;;;;;;5093477;28;20138;-44
2022/04/29 03:21:28;;;;;;;11.68;6.85;;;3.50;99.90;;;;;;5094976;28;20059;-44
2022/04/29 03:23:54;;;;;;;12.73;6.88;;;;;;;;;;5093550;28;20047;-47
2022/04/29 03:26:20;;;;;;;14.85;7.20;;;;;;;;;;5093712;28;20043;-46
2022/04/29 03:28:46;;;;;;;11.82;7.32;;;;;;;;;;5093531;28;20559;-44
2022/04/29 03:31:14;;;;;;;16.25;7.57;;;3.60;99.90;;;;;;5093038;28;20538;-48
2022/04/29 03:33:40;;;;;;;11.05;6.43;;;;;;;;;;5093524;28;20572;-43
2022/04/29 03:36:07;;;;;;;11.27;6.00;;;3.70;99.90;;;;;;5095151;28;20527;-45
2022/04/29 03:38:35;;;;;;;12.30;6.80;;;;;;;;;;5093733;28;20549;-45
2022/04/29 03:41:01;;;;;;;15.57;7.15;;;;;;;;;;5093012;28;20055;-46
2022/04/29 03:43:28;;;;;;;10.25;7.03;;;3.90;99.90;;;;;;5093681;28;20089;-45
2022/04/29 03:45:54;;;;;;;15.75;7.00;;;4.10;99.90;;;;;;5093476;28;20043;-47
2022/04/29 03:48:21;;;;;;;10.07;5.90;;;;;;;;;;5094096;28;20032;-44
2022/04/29 03:50:48;;;;;;;18.25;7.22;;;4.10;99.90;;;;;;5092548;28;20134;-46
2022/04/29 03:53:14;;;;;;;10.35;6.78;;;4.00;99.90;;;;;;5093075;28;20049;-47
2022/04/29 03:55:40;;;;;;;18.17;6.85;;;;;;;;;;5092434;28;20054;-44
2022/04/29 03:58:06;;;;;;;12.93;7.20;;;;;;;;;;5092770;28;20051;-47
2022/04/29 04:00:33;;;;;;;10.05;6.70;;;4.00;99.90;;;;;;5091105;28;20139;-46
2022/04/29 04:03:00;;;;;;;12.90;6.57;;;4.10;99.90;;;;;;5092604;28;20463;-48
2022/04/29 04:05:26;;;;;;;12.00;6.90;;;4.00;99.90;;;;;;5092035;28;20400;-46
2022/04/29 04:07:52;;;;;;;12.68;7.15;;;;;;;;;;5093472;28;20035;-46
2022/04/29 04:10:18;;;;;;;11.63;6.88;;;4.10;99.90;;;;;;5092288;28;20057;-46
2022/04/29 04:12:47;;;;;;;17.08;7.40;;;4.10;99.90;;;;;;5093335;28;20035;-46
2022/04/29 04:15:14;;;;;;;13.25;7.10;;;4.10;99.90;;;;;;5093055;28;21118;-46
2022/04/29 04:17:42;;;;;;;11.20;6.78;;;4.20;99.90;;;;;;5092592;28;20118;-48
2022/04/29 04:20:09;;;;;;;12.05;7.32;;;4.10;99.90;;;;;;5096303;28;20040;-45
2022/04/29 04:22:35;;;;;;;14.40;6.95;;;;;;;;;;5096049;28;20400;-45
2022/04/29 04:25:03;;;;;;;13.40;7.75;;;4.30;99.90;;;;;;5096714;28;20071;-47
2022/04/29 04:27:30;;;;;;;14.85;7.78;;;;;;;;;;5097809;28;20081;-45
2022/04/29 04:29:56;;;;;;;11.43;7.88;;;;;;;;;;5096633;28;20052;-45
2022/04/29 04:32:24;;;;;;;10.00;6.65;;;4.30;99.90;;;;;;5095663;28;20496;-44
2022/04/29 04:34:50;;;;;;;11.77;7.35;;;;;;;;;;5095797;28;20040;-47
2022/04/29 04:37:18;;;;;;;15.20;8.43;;;4.40;99.90;;;;;;5095310;28;20082;-49
2022/04/29 04:39:44;;;;;;;10.43;7.38;;;4.50;99.90;;;;;;5096595;28;20062;-46
2022/04/29 04:42:10;;;;;;;15.25;7.68;;;;;;;;;;5097572;28;20048;-45
2022/04/29 04:44:36;;;;;;;10.25;8.23;;;;;;;;;;5096036;28;20118;-45
2022/04/29 04:47:03;;;;;;;12.40;8.27;;;4.80;99.90;;;;;;5095925;28;20063;-49
2022/04/29 04:49:29;;;;;;;13.48;8.15;;;;;;;;;;5096887;28;20036;-45
2022/04/29 04:51:55;;;;;;;12.07;7.63;;;;;;;;;;5096343;28;20039;-49
2022/04/29 04:54:21;;;;;;;9.77;7.88;;;5.00;99.90;;;;;;5095855;28;20298;-48
2022/04/29 04:56:46;;;;;;;21.33;8.60;;;5.10;99.90;;;;;;5097276;28;20044;-49
2022/04/29 04:59:12;;;;;;;10.65;7.93;;;;;;;;;;5096389;28;20047;-46
2022/04/29 05:01:40;;;;;;;11.80;7.82;;;5.50;99.90;;;;;;5096387;28;20091;-49
2022/04/29 05:04:06;;;;;;;13.98;7.40;;;5.50;99.90;;;;;;5096825;28;20050;-46
2022/04/29 05:06:36;;;;;;;15.57;7.63;;;5.70;99.90;;;;;;5095420;28;20035;-48
2022/04/29 05:09:01;;;;;;;13.82;8.20;;;5.80;99.90;;;;;;5094933;28;20106;-50
2022/04/29 05:11:27;;;;;;;12.25;8.40;;;5.90;99.90;;;;;;5097006;28;20092;-47
2022/04/29 05:13:52;;;;;;;12.02;8.02;;;6.00;99.90;;;;;;5096630;28;20319;-45
2022/04/29 05:16:18;;;;;;;11.95;7.20;;;6.20;99.90;;;;;;5096934;28;20043;-46
2022/04/29 05:18:44;;;;;;;10.98;7.57;;;6.30;99.90;;;;;;5095345;28;20047;-45
2022/04/29 05:21:11;;;;;;;11.25;8.13;;;6.30;99.90;;;;;;5097120;28;20046;-46
2022/04/29 05:23:37;;;;;;;13.80;7.68;;;6.40;99.90;;;;;;5094372;28;20065;-45
2022/04/29 05:26:03;;;;;;;10.38;6.75;;;6.60;99.90;;;;;;5095374;28;20043;-50
2022/04/29 05:28:32;;;;;;;11.93;7.53;;;6.50;99.90;;;;;;5095538;28;20104;-49
2022/04/29 05:30:59;;;;;;;16.33;8.00;;;6.60;99.90;;;;;;5094209;28;20036;-49
2022/04/29 05:33:25;;;;;;;14.73;8.70;;;6.60;99.90;;;;;;5096527;28;20090;-45
2022/04/29 05:35:53;;;;;;;11.57;7.53;;;6.70;99.90;;;;;;5095218;28;20047;-49
2022/04/29 05:38:19;;;;;;;13.18;7.88;;;7.60;99.90;;;;;;5095155;28;20396;-48
2022/04/29 05:43:29;;;;;;;10.77;6.43;;;6.90;99.90;;;;;;5095761;28;20052;-48
2022/04/29 05:45:55;;;;;;;12.02;6.65;;;7.00;99.90;;;;;;5093976;28;20098;-45
2022/04/29 05:48:21;;;;;;;10.55;6.97;;;7.30;99.90;;;;;;5095000;28;20035;-48
2022/04/29 05:50:49;;;;;;;10.60;6.90;;;7.10;99.90;;;;;;5094375;28;20040;-47
2022/04/29 05:53:15;;;;;;;10.32;6.40;;;7.20;99.90;;;;;;5094893;28;20540;-50
2022/04/29 05:55:42;;;;;;;11.57;6.45;;;7.10;99.90;;;;;;5094131;28;20088;-48
2022/04/29 05:58:08;;;;;;;11.60;6.00;;;8.40;99.90;;;;;;5094106;28;20050;-46
2022/04/29 06:00:34;;;;;;;7.70;5.68;;;7.10;99.90;;;;;;5095460;28;20032;-48
2022/04/29 06:03:00;;;;;;;11.90;5.47;;;7.20;99.90;;;;;;5094047;28;20077;-50
2022/04/29 06:05:26;;;;;;;11.48;5.80;;;7.40;99.90;;;;;;5095072;28;20785;-49
2022/04/29 06:07:54;;;;;;;6.40;4.70;;;7.60;99.90;;;;;;5095453;28;20031;-47
2022/04/29 06:10:20;;;;;;;10.25;4.75;;;7.50;99.90;;;;;;5095432;28;20050;-45
2022/04/29 06:12:46;;;;;;;10.85;4.93;;;7.60;99.90;;;;;;5093988;28;20043;-48
2022/04/29 06:15:17;;;;;;;8.10;4.60;;;7.70;99.90;;;;;;5094552;28;20035;-45
2022/04/29 06:17:43;;;;;;;8.95;3.92;;;8.00;99.90;;;;;;5094077;28;20054;-44
2022/04/29 06:20:10;;;;;;;8.48;3.78;;;8.30;99.90;;;;;;5091439;28;20035;-45
2022/04/29 06:22:46;;;;;;;11.70;3.42;;;7.90;99.90;;;;;;5092423;28;20071;-47
2022/04/29 06:25:11;;;;;;;8.57;3.35;;;8.90;99.90;;;;;;5094168;28;20043;-46
2022/04/29 06:27:37;;;;;;;10.10;3.75;;;8.20;99.90;;;;;;5095930;28;20107;-45
2022/04/29 06:30:08;;;;;;;8.88;3.25;;;8.40;99.90;;;;;;5094533;28;20192;-46
2022/04/29 06:32:35;;;;;;;7.78;2.85;;;8.30;99.90;;;;;;5094220;28;20047;-47
2022/04/29 06:35:02;;;;;;;10.73;3.20;;;8.30;99.90;;;;;;5093836;28;20043;-47
2022/04/29 06:37:28;;;;;;;10.20;3.00;;;8.50;99.90;;;;;;5094672;28;20975;-51
2022/04/29 06:39:53;;;;;;;9.55;2.72;;;9.80;99.90;;;;;;5093756;28;20108;-46
2022/04/29 06:42:19;;;;;;;9.85;2.72;;;8.60;99.90;;;;;;5093268;28;20882;-45
2022/04/29 06:44:45;;;;;;;9.45;3.15;;;9.10;99.90;;;;;;5091055;28;20055;-45
2022/04/29 06:47:11;;;;;;;5.65;2.47;;;8.90;99.90;;;;;;5093867;28;20841;-46
2022/04/29 06:49:36;;;;;;;8.60;3.10;;;9.20;99.90;;;;;;5093483;28;20442;-47
2022/04/29 06:52:04;;;;;;;10.65;2.50;;;9.00;99.90;;;;;;5093930;28;20513;-49
2022/04/29 06:54:30;;;;;;;8.65;2.60;;;9.10;99.90;;;;;;5093958;28;20040;-48
2022/04/29 06:56:55;;;;;;;8.80;2.53;;;9.10;99.90;;;;;;5093506;28;20043;-47
2022/04/29 06:59:22;;;;;;;9.27;2.38;;;11.00;99.90;;;;;;5092904;28;20511;-48
2022/04/29 07:01:47;;;;;;;7.40;2.40;;;9.10;99.90;;;;;;5093159;28;20044;-45
2022/04/29 07:04:13;;;;;;;9.00;2.22;;;9.30;99.90;;;;;;5092377;28;20078;-48
2022/04/29 07:06:39;;;;;;;6.80;2.20;;;8.90;99.90;;;;;;5093224;28;20316;-50
2022/04/29 07:09:04;;;;;;;5.50;1.80;;;9.10;99.90;;;;;;5094041;28;20082;-48
2022/04/29 07:11:31;;;;;;;7.95;2.65;;;9.10;99.90;;;;;;5092577;28;20039;-46
2022/04/29 07:14:01;;;;;;;4.90;1.80;;;9.00;99.90;;;;;;5093927;28;20602;-46
2022/04/29 07:16:27;;;;;;;8.75;2.13;;;9.20;99.90;;;;;;5091626;28;20467;-48
2022/04/29 07:18:52;;;;;;;8.73;2.20;;;9.10;99.90;;;;;;5091752;28;20118;-45
2022/04/29 07:21:18;;;;;;;5.80;1.90;;;9.10;99.90;;;;;;5091340;28;20138;-50
2022/04/29 07:23:44;;;;;;;6.97;1.92;;;10.50;99.90;;;;;;5091182;28;20042;-43
2022/04/29 07:26:09;;;;;;;5.30;1.60;;;9.40;99.90;;;;;;5093697;28;20038;-45
2022/04/29 07:28:37;;;;;;;4.72;1.85;;;9.50;99.90;;;;;;5091609;28;20480;-47
2022/04/29 07:31:03;;;;;;;4.47;1.73;;;9.40;99.90;;;;;;5092775;28;20044;-46
2022/04/29 07:33:28;;;;;;;7.28;1.90;;;9.60;99.90;;;;;;5091510;28;20074;-46
2022/04/29 07:44:07;;;;;;;6.90;1.88;;;9.40;99.90;;;;;;5090932;28;20519;-46
2022/04/29 07:46:36;;;;;;;6.93;1.52;;;9.90;99.90;;;;;;5091217;28;20039;-45
2022/04/29 07:49:05;;;;;;;10.15;2.05;;;9.80;99.90;;;;;;5090521;28;20189;-44
2022/04/29 07:51:31;;;;;;;6.57;2.20;;;10.40;99.90;;;;;;5091117;28;20535;-44
2022/04/29 07:53:56;;;;;;;7.47;2.05;;;10.00;99.90;;;;;;5090668;28;20044;-45
2022/04/29 07:56:22;;;;;;;7.47;2.10;;;10.60;99.90;;;;;;5091426;28;20035;-49
2022/04/29 07:58:47;;;;;;;7.15;1.95;;;9.80;99.90;;;;;;5091924;28;20044;-47
2022/04/29 08:01:16;;;;;;;7.47;1.55;;;9.70;99.90;;;;;;5090628;28;20048;-49
2022/04/29 08:03:42;;;;;;;6.18;1.85;;;9.70;99.90;;;;;;5089604;28;20036;-48
2022/04/29 08:06:08;;;;;;;8.73;2.25;;;9.70;99.90;;;;;;5088456;28;20044;-48
2022/04/29 08:08:39;;;;;;;7.18;1.90;;;10.00;99.90;;;;;;5092250;28;20047;-44
2022/04/29 08:11:06;;;;;;;6.60;1.70;;;9.70;99.90;;;;;;5092314;28;20124;-45
2022/04/29 08:13:32;;;;;;;6.05;1.73;;;9.80;99.90;;;;;;5092330;28;20052;-49
2022/04/29 08:16:01;;;;;;;7.60;2.58;;;10.60;99.90;;;;;;5091348;28;20035;-47
2022/04/29 08:18:26;;;;;;;6.85;1.92;;;9.70;99.90;;;;;;5091693;28;20040;-48
2022/04/29 08:20:53;;;;;;;7.10;2.20;;;9.80;99.90;;;;;;5086276;28;20035;-45
2022/04/29 08:23:19;;;;;;;5.40;1.55;;;10.80;99.90;;;;;;5091281;28;20050;-45
2022/04/29 08:25:45;;;;;;;7.28;2.42;;;11.30;99.90;;;;;;5089632;28;20047;-47
2022/04/29 08:28:10;;;;;;;8.65;2.15;;;9.60;99.90;;;;;;5090778;28;20506;-46
2022/04/29 08:30:40;;;;;;;6.72;2.15;;;9.70;99.90;;;;;;5091107;28;20048;-47
2022/04/29 08:33:12;;;;;;;6.80;2.53;;;9.70;99.90;;;;;;5091543;28;21013;-45
2022/04/29 08:35:37;;;;;;;6.57;2.45;;;9.80;99.90;;;;;;5092744;28;20763;-48
2022/04/29 08:38:04;;;;;;;10.25;2.40;;;9.90;99.90;;;;;;5093302;28;20452;-44
2022/04/29 08:40:30;;;;;;;9.38;2.20;;;10.10;99.90;;;;;;5092014;28;20545;-48
2022/04/29 08:42:57;;;;;;;7.25;2.88;;;10.20;99.90;;;;;;5091935;28;20032;-47
2022/04/29 08:45:25;;;;;;;8.20;2.70;;;11.30;99.90;;;;;;5091689;28;20048;-49
2022/04/29 08:47:50;;;;;;;6.55;2.17;;;10.60;99.90;;;;;;5091720;28;20512;-48
2022/04/29 08:50:18;;;;;;;5.80;2.33;;;10.80;99.90;;;;;;5090842;28;20039;-48
2022/04/29 08:52:48;;;;;;;7.28;2.60;;;10.90;99.90;;;;;;5092207;28;20049;-46
2022/04/29 09:00:45;;;;;;;6.13;2.00;;;11.80;99.90;;;;;;5090137;28;20051;-50
2022/04/29 09:03:13;;;;;;;8.40;2.22;;;11.40;99.90;;;;;;5092785;28;20036;-44
2022/04/29 09:05:39;;;;;;;6.30;2.00;;;11.10;99.90;;;;;;5094988;28;20040;-47
2022/04/29 09:08:05;;;;;;;7.65;1.80;;;12.60;99.90;;;;;;5096471;28;20522;-49
2022/04/29 09:10:36;;;;;;;6.63;2.33;;;10.60;99.90;;;;;;5097094;28;20046;-44
2022/04/29 09:13:13;;;;;;;6.00;2.58;;;10.30;99.90;;;;;;5095669;28;20036;-46
2022/04/29 09:16:13;;;;;;;6.38;2.38;;;10.10;99.90;;;;;;5094984;28;20050;-46
2022/04/29 09:18:42;;;;;;;7.35;1.85;;;10.30;99.90;;;;;;5031992;28;20057;-46
2022/04/29 09:21:14;;;;;;;12.80;2.60;;;10.40;99.90;;;;;;5032536;28;20143;-46
2022/04/29 09:23:42;;;;;;;;;;;10.30;99.90;;;;;;5033332;28;20595;-48
2022/04/29 09:26:19;;;;;;;7.45;2.00;;;11.00;99.90;;;;;;5032594;28;20071;-47
2022/04/29 09:28:45;;;;;;;5.60;1.73;;;11.00;99.90;;;;;;5032164;28;20086;-46
2022/04/29 09:31:11;;;;;;;3.80;1.48;;;10.10;99.90;;;;;;5031224;28;20409;-46
2022/04/29 09:33:39;;;;;;;5.70;1.67;;;11.30;99.90;;;;;;5030212;28;20029;-49
2022/04/29 09:36:05;;;;;;;5.00;2.20;;;11.60;99.90;;;;;;5030710;28;20076;-44
2022/04/29 09:41:23;;;;;;;8.25;2.30;;;10.00;99.90;;;;;;5032860;28;20727;-46
2022/04/29 09:43:49;;;;;;;7.72;2.17;;;10.20;99.90;;;;;;5032186;28;20049;-46
2022/04/29 09:46:17;;;;;;;8.23;2.45;;;10.20;99.90;;;;;;5032161;28;20521;-48
2022/04/29 09:49:03;;;;;;;7.88;2.40;;;11.00;99.90;;;;;;5030204;28;20060;-44
2022/04/29 09:51:48;;;;;;;7.07;2.63;;;10.10;99.90;;;;;;5031022;28;20036;-49
2022/04/29 09:54:27;;;;;;;6.68;2.30;;;10.10;99.90;;;;;;5042809;28;20059;-45
2022/04/29 09:57:27;;;;;;;7.10;3.28;;;10.00;99.90;;;;;;5093346;28;20039;-48
2022/04/29 09:59:55;;;;;;;5.70;2.33;;;9.70;99.90;;;;;;5012270;28;20049;-47
2022/04/29 10:02:24;;;;;;;6.00;2.55;;;9.70;99.90;;;;;;5011474;28;20580;-47
2022/04/29 10:04:52;;;;;;;5.78;2.40;;;10.10;99.90;;;;;;5012318;28;20725;-47
2022/04/29 10:07:20;;;;;;;5.05;2.60;;;10.00;99.90;;;;;;5011449;28;20057;-47
2022/04/29 10:09:50;;;;;;;7.10;3.22;;;10.10;99.90;;;;;;5013609;28;20127;-45
2022/04/29 10:12:18;;;;;;;9.05;2.60;;;10.00;99.90;;;;;;5011441;28;20072;-49
2022/04/29 10:14:47;;;;;;;8.27;2.90;;;10.20;99.90;;;;;;5012404;28;20045;-43
2022/04/29 10:22:56;;;;;;;7.00;2.97;;;10.00;99.90;;;;;;5012120;28;20553;-45
2022/04/29 10:25:25;;;;;;;7.97;2.83;;;10.10;99.90;;;;;;5012981;28;20051;-45
2022/04/29 10:27:52;;;;;;;7.45;3.10;;;10.80;99.90;;;;;;5013314;28;20037;-48
2022/04/29 10:30:33;;;;;;;7.47;2.60;;;11.10;99.90;;;;;;5012542;28;20049;-46
2022/04/29 10:33:03;;;;;;;6.78;2.67;;;10.00;99.90;;;;;;5010264;28;20091;-45
2022/04/29 10:35:46;;;;;;;9.32;3.30;;;10.10;99.90;;;;;;5052394;28;20530;-48
2022/04/29 10:38:39;;;;;;;5.72;3.35;;;10.00;99.90;;;;;;5093295;28;20046;-48
2022/04/29 10:41:26;;;;;;;8.60;2.95;;;10.10;99.90;;;;;;5093746;28;20092;-48
2022/04/29 10:43:52;;;;;;;8.32;3.30;;;10.10;99.90;;;;;;5093291;28;20036;-48
2022/04/29 10:46:39;;;;;;;7.75;3.10;;;10.10;99.90;;;;;;5094051;28;20052;-48
2022/04/29 10:49:21;;;;;;;6.90;3.20;;;10.10;99.90;;;;;;5091907;28;20047;-47
2022/04/29 10:51:55;;;;;;;8.60;2.97;;;10.10;99.90;;;;;;5094771;28;20047;-46
2022/04/29 10:54:33;;;;;;;8.43;3.00;;;10.60;99.90;;;;;;5093270;28;20044;-43
2022/04/29 10:57:02;;;;;;;9.93;2.85;;;11.30;99.90;;;;;;5093432;28;20043;-48
2022/04/29 10:59:47;;;;;;;9.07;2.80;;;10.10;99.90;;;;;;5093004;28;20115;-47
2022/04/29 11:02:23;;;;;;;7.50;2.53;;;10.00;99.90;;;;;;5092966;28;20078;-44
2022/04/29 11:04:49;;;;;;;10.50;2.92;;;10.10;99.90;;;;;;5093464;28;20031;-43
2022/04/29 11:07:36;;;;;;;8.32;2.60;;;10.10;99.90;;;;;;5092759;28;20036;-46
2022/04/29 11:10:04;;;;;;;5.95;2.80;;;10.10;99.90;;;;;;5094386;28;20043;-47
2022/04/29 11:12:37;;;;;;;5.43;2.40;;;10.40;99.90;;;;;;5093685;28;20119;-48
2022/04/29 11:15:14;;;;;;;7.13;2.40;;;10.20;99.90;;;;;;5093628;28;21018;-48
2022/04/29 11:17:43;;;;;;;13.32;2.80;;;10.60;99.90;;;;;;5092584;28;20511;-48
2022/04/29 11:20:21;;;;;;;8.52;2.47;;;10.50;99.90;;;;;;5093335;28;20036;-48
2022/04/29 11:26:00;;;;;;;7.22;2.50;;;11.90;99.90;;;;;;5093367;28;20522;-46
2022/04/29 11:28:27;;;;;;;10.70;3.72;;;10.80;99.90;;;;;;5094689;28;20047;-45
2022/04/29 11:31:01;;;;;;;6.10;2.30;;;10.80;99.90;;;;;;5093106;28;20150;-48
2022/04/29 11:33:29;;;;;;;6.18;2.45;;;10.90;99.90;;;;;;5093676;28;20075;-45
2022/04/29 11:36:08;;;;;;;10.15;3.38;;;10.70;99.90;;;;;;5093931;28;20035;-48
2022/04/29 11:38:47;;;;;;;9.52;3.35;;;10.70;99.90;;;;;;5092876;28;20031;-46
2022/04/29 11:41:21;;;;;;;7.10;2.85;;;10.70;99.90;;;;;;5095057;28;20051;-48
2022/04/29 11:43:51;;;;;;;8.70;3.45;;;10.80;99.90;;;;;;5093251;28;20056;-48
2022/04/29 11:46:18;;;;;;;7.78;3.03;;;12.10;99.90;;;;;;5093269;28;20040;-46
2022/04/29 11:48:58;;;;;;;8.02;2.80;;;12.00;99.90;;;;;;5093314;28;20206;-48
2022/04/29 11:51:25;;;;;;;9.60;3.63;;;10.80;99.90;;;;;;5092808;28;20051;-43
2022/04/29 11:53:56;;;;;;;6.63;2.25;;;11.00;99.90;;;;;;5092593;28;20385;-48
2022/04/29 11:56:30;;;;;;;6.13;2.10;;;10.80;99.90;;;;;;5093332;28;20318;-45
2022/04/29 11:58:55;;;;;;;13.05;2.67;;;11.00;99.90;;;;;;5090452;28;20048;-47
2022/04/29 12:01:22;;;;;;;12.00;2.53;;;12.90;99.90;;;;;;5090706;28;20105;-43
2022/04/29 12:03:48;;;;;;;7.15;2.50;;;10.70;99.90;;;;;;5093172;28;20043;-43
2022/04/29 12:06:13;;;;;;;6.32;2.47;;;10.50;99.90;;;;;;5092142;28;20097;-47
2022/04/29 12:08:39;;;;;;;10.30;3.28;;;11.50;99.90;;;;;;5091561;28;20183;-48
2022/04/29 12:11:05;;;;;;;10.52;2.22;;;10.60;99.90;;;;;;5093049;28;20050;-47
2022/04/29 12:13:31;;;;;;;5.22;2.45;;;10.30;99.90;;;;;;5094133;28;20035;-43
2022/04/29 12:15:57;;;;;;;5.80;2.20;;;10.40;99.90;;;;;;5092281;28;20042;-46
2022/04/29 12:18:42;;;;;;;6.75;2.80;;;10.40;99.90;;;;;;5093361;28;20051;-47
2022/04/29 12:21:09;;;;;;;6.15;1.95;;;10.80;99.90;;;;;;5091750;28;20117;-47
2022/04/29 12:23:35;;;;;;;4.63;2.50;;;11.30;99.90;;;;;;5093416;28;20047;-49
2022/04/29 12:26:02;;;;;;;9.55;3.25;;;10.50;99.90;;;;;;5093029;28;20035;-48
2022/04/29 12:28:30;;;;;;;8.80;3.05;;;10.60;99.90;;;;;;5091200;28;20067;-48
2022/04/29 12:36:58;;;;;;;6.47;3.65;;;10.80;99.90;;;;;;5094047;28;20127;-46
2022/04/29 12:39:39;;;;;;;5.50;1.70;;;11.00;99.90;;;;;;5094509;28;20036;-49
2022/04/29 12:42:10;;;;;;;5.93;2.20;;;11.10;99.90;;;;;;5096377;28;20177;-45
2022/04/29 12:45:04;;;;;;;5.82;2.20;;;11.50;99.90;;;;;;5098253;28;20047;-49
2022/04/29 12:47:41;;;;;;;4.70;2.03;;;11.80;99.90;;;;;;5097415;28;20786;-48
2022/04/29 12:50:29;;;;;;;6.85;2.30;;;10.90;99.90;;;;;;5097221;28;20031;-50
2022/04/29 12:53:15;;;;;;;7.15;2.25;;;11.00;99.90;;;;;;5097676;27;20407;-48
2022/04/29 12:55:51;;;;;;;9.05;2.58;;;10.90;99.90;;;;;;5095820;28;20048;-49
2022/04/29 12:58:26;;;;;;;5.03;2.20;;;11.30;99.90;;;;;;5097649;28;20171;-48
2022/04/29 13:00:52;;;;;;;8.27;2.30;;;10.80;99.90;;;;;;5097052;28;20047;-48
2022/04/29 13:03:23;;;;;;;5.78;2.08;;;10.70;99.90;;;;;;5096071;28;20045;-45
2022/04/29 13:05:49;;;;;;;7.25;2.65;;;10.70;99.90;;;;;;5095860;28;20047;-45
2022/04/29 13:08:16;;;;;;;10.30;2.35;;;11.10;99.90;;;;;;5098005;28;20171;-50
2022/04/29 13:10:53;;;;;;;5.20;1.95;;;11.30;99.90;;;;;;5098045;28;20040;-49
2022/04/29 13:13:21;;;;;;;8.15;2.50;;;10.70;99.90;;;;;;5096036;28;20043;-46
2022/04/29 13:15:48;;;;;;;4.43;2.00;;;10.80;99.90;;;;;;5097065;28;20575;-48
2022/04/29 13:18:16;;;;;;;9.65;2.65;;;12.70;99.90;;;;;;5096023;28;20113;-48
2022/04/29 13:20:42;;;;;;;5.28;2.17;;;11.00;99.90;;;;;;5095900;28;20051;-49
2022/04/29 13:23:11;;;;;;;6.93;2.13;;;12.80;99.90;;;;;;5095081;28;20047;-49
2022/04/29 13:25:39;;;;;;;7.38;2.30;;;11.20;99.90;;;;;;5094535;28;20066;-49
2022/04/29 13:28:05;;;;;;;5.80;1.77;;;13.30;99.90;;;;;;5096511;28;20059;-48
2022/04/29 13:30:34;;;;;;;5.13;2.00;;;12.70;99.90;;;;;;5095592;28;20395;-46
2022/04/29 13:33:01;;;;;;;7.53;2.22;;;12.60;99.90;;;;;;5095632;28;20399;-46
2022/04/29 13:35:27;;;;;;;5.60;2.00;;;11.40;99.90;;;;;;5094951;28;20529;-48
2022/04/29 13:37:55;;;;;;;7.57;2.30;;;11.30;99.90;;;;;;5095251;28;20047;-48
2022/04/29 13:40:21;;;;;;;6.45;2.40;;;11.10;99.90;;;;;;5093129;28;20051;-48
2022/04/29 13:42:48;;;;;;;8.75;2.60;;;13.00;99.90;;;;;;5093416;28;20118;-49
2022/04/29 13:45:16;;;;;;;8.82;2.50;;;11.40;99.90;;;;;;5095208;27;20337;-50
2022/04/29 13:47:42;;;;;;;7.82;2.72;;;11.10;99.90;;;;;;5094045;28;20883;-44